sensor_id;sensor_type;location;lat;lon;timestamp;P1;durP1;ratioP1;P2;durP2;ratioP2
38603;SDS011;24924;50.054;8.790;2023-07-13T00:00:29;2.75;;;1.10;;
38603;SDS011;24924;50.054;8.790;2023-07-13T00:02:57;4.28;;;1.20;;
38603;SDS011;24924;50.054;8.790;2023-07-13T00:05:23;3.88;;;1.50;;
38603;SDS011;24924;50.054;8.790;2023-07-13T00:07:50;3.22;;;1.30;;
38603;SDS011;24924;50.054;8.790;2023-07-13T00:10:17;3.13;;;1.40;;
38603;SDS011;24924;50.054;8.790;2023-07-13T00:12:43;3.30;;;1.50;;
38603;SDS011;24924;50.054;8.790;2023-07-13T00:15:12;2.72;;;1.13;;
38603;SDS011;24924;50.054;8.790;2023-07-13T00:17:41;3.67;;;1.73;;
38603;SDS011;24924;50.054;8.790;2023-07-13T00:20:10;3.15;;;1.35;;
38603;SDS011;24924;50.054;8.790;2023-07-13T00:22:36;3.00;;;1.20;;
38603;SDS011;24924;50.054;8.790;2023-07-13T00:25:02;3.35;;;1.50;;
38603;SDS011;24924;50.054;8.790;2023-07-13T00:27:32;3.45;;;1.33;;
38603;SDS011;24924;50.054;8.790;2023-07-13T00:29:58;3.90;;;1.45;;
38603;SDS011;24924;50.054;8.790;2023-07-13T00:32:24;2.95;;;1.30;;
38603;SDS011;24924;50.054;8.790;2023-07-13T00:34:51;4.50;;;1.70;;
38603;SDS011;24924;50.054;8.790;2023-07-13T00:37:17;3.20;;;1.20;;
38603;SDS011;24924;50.054;8.790;2023-07-13T00:39:43;3.15;;;1.42;;
38603;SDS011;24924;50.054;8.790;2023-07-13T00:42:09;3.00;;;1.30;;
38603;SDS011;24924;50.054;8.790;2023-07-13T00:44:36;3.57;;;1.30;;
38603;SDS011;24924;50.054;8.790;2023-07-13T00:47:04;3.30;;;1.40;;
38603;SDS011;24924;50.054;8.790;2023-07-13T00:49:31;3.00;;;1.20;;
38603;SDS011;24924;50.054;8.790;2023-07-13T00:52:06;3.42;;;1.50;;
38603;SDS011;24924;50.054;8.790;2023-07-13T00:54:35;3.50;;;1.60;;
38603;SDS011;24924;50.054;8.790;2023-07-13T00:57:06;2.97;;;1.13;;
38603;SDS011;24924;50.054;8.790;2023-07-13T00:59:39;3.90;;;1.45;;
38603;SDS011;24924;50.054;8.790;2023-07-13T01:02:07;3.22;;;1.40;;
38603;SDS011;24924;50.054;8.790;2023-07-13T01:04:33;3.08;;;1.40;;
38603;SDS011;24924;50.054;8.790;2023-07-13T01:06:59;3.00;;;1.30;;
38603;SDS011;24924;50.054;8.790;2023-07-13T01:09:27;3.45;;;1.40;;
38603;SDS011;24924;50.054;8.790;2023-07-13T01:11:53;3.20;;;1.40;;
38603;SDS011;24924;50.054;8.790;2023-07-13T01:14:19;3.70;;;1.27;;
38603;SDS011;24924;50.054;8.790;2023-07-13T01:16:45;5.23;;;1.50;;
38603;SDS011;24924;50.054;8.790;2023-07-13T01:22:02;3.00;;;1.30;;
38603;SDS011;24924;50.054;8.790;2023-07-13T01:24:29;2.95;;;1.08;;
38603;SDS011;24924;50.054;8.790;2023-07-13T01:26:55;3.00;;;1.25;;
38603;SDS011;24924;50.054;8.790;2023-07-13T01:29:21;3.67;;;1.40;;
38603;SDS011;24924;50.054;8.790;2023-07-13T01:31:47;3.13;;;1.33;;
38603;SDS011;24924;50.054;8.790;2023-07-13T01:34:13;3.00;;;1.27;;
38603;SDS011;24924;50.054;8.790;2023-07-13T01:36:39;2.90;;;1.10;;
38603;SDS011;24924;50.054;8.790;2023-07-13T01:39:04;2.70;;;1.05;;
38603;SDS011;24924;50.054;8.790;2023-07-13T01:41:30;3.00;;;1.30;;
38603;SDS011;24924;50.054;8.790;2023-07-13T01:43:56;2.80;;;1.10;;
38603;SDS011;24924;50.054;8.790;2023-07-13T01:46:22;2.70;;;1.08;;
38603;SDS011;24924;50.054;8.790;2023-07-13T01:48:48;4.35;;;1.35;;
38603;SDS011;24924;50.054;8.790;2023-07-13T01:51:15;2.80;;;1.10;;
38603;SDS011;24924;50.054;8.790;2023-07-13T01:53:44;2.90;;;1.10;;
38603;SDS011;24924;50.054;8.790;2023-07-13T01:56:09;3.00;;;1.20;;
38603;SDS011;24924;50.054;8.790;2023-07-13T01:58:35;3.63;;;1.43;;
38603;SDS011;24924;50.054;8.790;2023-07-13T02:01:01;4.20;;;1.58;;
38603;SDS011;24924;50.054;8.790;2023-07-13T02:03:27;3.08;;;1.20;;
38603;SDS011;24924;50.054;8.790;2023-07-13T02:05:52;2.93;;;1.20;;
38603;SDS011;24924;50.054;8.790;2023-07-13T02:08:18;2.80;;;1.05;;
38603;SDS011;24924;50.054;8.790;2023-07-13T02:10:45;2.90;;;1.20;;
38603;SDS011;24924;50.054;8.790;2023-07-13T02:13:11;2.70;;;1.00;;
38603;SDS011;24924;50.054;8.790;2023-07-13T02:15:38;2.90;;;1.10;;
38603;SDS011;24924;50.054;8.790;2023-07-13T02:18:06;2.90;;;1.05;;
38603;SDS011;24924;50.054;8.790;2023-07-13T02:20:32;2.92;;;1.15;;
38603;SDS011;24924;50.054;8.790;2023-07-13T02:22:57;3.60;;;1.50;;
38603;SDS011;24924;50.054;8.790;2023-07-13T02:25:23;3.67;;;1.30;;
38603;SDS011;24924;50.054;8.790;2023-07-13T02:27:50;3.22;;;1.30;;
38603;SDS011;24924;50.054;8.790;2023-07-13T02:30:16;3.40;;;1.65;;
38603;SDS011;24924;50.054;8.790;2023-07-13T02:32:42;4.23;;;1.53;;
38603;SDS011;24924;50.054;8.790;2023-07-13T02:35:09;2.95;;;1.30;;
38603;SDS011;24924;50.054;8.790;2023-07-13T02:37:36;3.17;;;1.25;;
38603;SDS011;24924;50.054;8.790;2023-07-13T02:40:02;5.07;;;1.40;;
38603;SDS011;24924;50.054;8.790;2023-07-13T02:42:35;3.30;;;1.50;;
38603;SDS011;24924;50.054;8.790;2023-07-13T02:45:00;3.03;;;1.10;;
38603;SDS011;24924;50.054;8.790;2023-07-13T02:47:26;3.35;;;1.45;;
38603;SDS011;24924;50.054;8.790;2023-07-13T02:49:52;3.30;;;1.20;;
38603;SDS011;24924;50.054;8.790;2023-07-13T02:52:19;3.00;;;1.33;;
38603;SDS011;24924;50.054;8.790;2023-07-13T02:54:45;3.03;;;1.40;;
38603;SDS011;24924;50.054;8.790;2023-07-13T02:57:11;3.03;;;1.40;;
38603;SDS011;24924;50.054;8.790;2023-07-13T02:59:37;3.20;;;1.70;;
38603;SDS011;24924;50.054;8.790;2023-07-13T03:02:03;5.03;;;1.48;;
38603;SDS011;24924;50.054;8.790;2023-07-13T03:04:29;2.80;;;1.20;;
38603;SDS011;24924;50.054;8.790;2023-07-13T03:06:55;5.00;;;1.60;;
38603;SDS011;24924;50.054;8.790;2023-07-13T03:09:27;3.77;;;1.40;;
38603;SDS011;24924;50.054;8.790;2023-07-13T03:11:54;2.75;;;1.10;;
38603;SDS011;24924;50.054;8.790;2023-07-13T03:14:25;3.10;;;1.20;;
38603;SDS011;24924;50.054;8.790;2023-07-13T03:16:52;2.70;;;1.10;;
38603;SDS011;24924;50.054;8.790;2023-07-13T03:19:21;3.10;;;1.35;;
38603;SDS011;24924;50.054;8.790;2023-07-13T03:21:49;3.17;;;1.40;;
38603;SDS011;24924;50.054;8.790;2023-07-13T03:24:15;2.90;;;1.20;;
38603;SDS011;24924;50.054;8.790;2023-07-13T03:26:42;3.40;;;1.35;;
38603;SDS011;24924;50.054;8.790;2023-07-13T03:29:08;4.85;;;1.33;;
38603;SDS011;24924;50.054;8.790;2023-07-13T03:31:36;3.00;;;1.30;;
38603;SDS011;24924;50.054;8.790;2023-07-13T03:34:02;3.60;;;1.77;;
38603;SDS011;24924;50.054;8.790;2023-07-13T03:36:29;3.42;;;1.42;;
38603;SDS011;24924;50.054;8.790;2023-07-13T03:38:59;2.90;;;1.20;;
38603;SDS011;24924;50.054;8.790;2023-07-13T03:41:34;3.70;;;1.60;;
38603;SDS011;24924;50.054;8.790;2023-07-13T03:44:00;3.22;;;1.10;;
38603;SDS011;24924;50.054;8.790;2023-07-13T03:46:27;3.20;;;1.30;;
38603;SDS011;24924;50.054;8.790;2023-07-13T03:48:52;3.10;;;1.27;;
38603;SDS011;24924;50.054;8.790;2023-07-13T03:51:19;9.32;;;1.30;;
38603;SDS011;24924;50.054;8.790;2023-07-13T03:53:45;3.35;;;1.55;;
38603;SDS011;24924;50.054;8.790;2023-07-13T03:56:14;3.03;;;1.30;;
38603;SDS011;24924;50.054;8.790;2023-07-13T03:58:42;3.50;;;1.60;;
38603;SDS011;24924;50.054;8.790;2023-07-13T04:01:14;3.90;;;1.45;;
38603;SDS011;24924;50.054;8.790;2023-07-13T04:03:41;3.10;;;1.40;;
38603;SDS011;24924;50.054;8.790;2023-07-13T04:06:08;2.90;;;1.30;;
38603;SDS011;24924;50.054;8.790;2023-07-13T04:08:47;2.90;;;1.20;;
38603;SDS011;24924;50.054;8.790;2023-07-13T04:11:15;3.13;;;1.30;;
38603;SDS011;24924;50.054;8.790;2023-07-13T04:13:42;2.80;;;1.20;;
38603;SDS011;24924;50.054;8.790;2023-07-13T04:16:08;3.47;;;1.25;;
38603;SDS011;24924;50.054;8.790;2023-07-13T04:18:34;3.90;;;1.40;;
38603;SDS011;24924;50.054;8.790;2023-07-13T04:20:59;4.07;;;1.40;;
38603;SDS011;24924;50.054;8.790;2023-07-13T04:23:25;3.10;;;1.25;;
38603;SDS011;24924;50.054;8.790;2023-07-13T04:25:52;2.90;;;1.30;;
38603;SDS011;24924;50.054;8.790;2023-07-13T04:28:22;3.80;;;1.50;;
38603;SDS011;24924;50.054;8.790;2023-07-13T04:30:50;3.13;;;1.37;;
38603;SDS011;24924;50.054;8.790;2023-07-13T04:33:15;3.33;;;1.55;;
38603;SDS011;24924;50.054;8.790;2023-07-13T04:35:48;3.28;;;1.38;;
38603;SDS011;24924;50.054;8.790;2023-07-13T04:38:25;4.82;;;1.67;;
38603;SDS011;24924;50.054;8.790;2023-07-13T04:40:54;3.08;;;1.20;;
38603;SDS011;24924;50.054;8.790;2023-07-13T04:43:21;3.23;;;1.50;;
38603;SDS011;24924;50.054;8.790;2023-07-13T04:45:47;3.60;;;1.60;;
38603;SDS011;24924;50.054;8.790;2023-07-13T04:48:13;3.30;;;1.60;;
38603;SDS011;24924;50.054;8.790;2023-07-13T04:50:39;2.97;;;1.50;;
38603;SDS011;24924;50.054;8.790;2023-07-13T04:53:05;3.35;;;1.73;;
38603;SDS011;24924;50.054;8.790;2023-07-13T04:55:31;3.97;;;1.55;;
38603;SDS011;24924;50.054;8.790;2023-07-13T04:57:57;2.93;;;1.33;;
38603;SDS011;24924;50.054;8.790;2023-07-13T05:00:24;2.90;;;1.30;;
38603;SDS011;24924;50.054;8.790;2023-07-13T05:02:51;2.95;;;1.13;;
38603;SDS011;24924;50.054;8.790;2023-07-13T05:05:17;4.30;;;1.58;;
38603;SDS011;24924;50.054;8.790;2023-07-13T05:07:42;3.40;;;1.50;;
38603;SDS011;24924;50.054;8.790;2023-07-13T05:10:08;4.10;;;1.52;;
38603;SDS011;24924;50.054;8.790;2023-07-13T05:12:35;3.20;;;1.40;;
38603;SDS011;24924;50.054;8.790;2023-07-13T05:15:01;3.40;;;1.50;;
38603;SDS011;24924;50.054;8.790;2023-07-13T05:17:27;3.10;;;1.23;;
38603;SDS011;24924;50.054;8.790;2023-07-13T05:19:53;2.80;;;1.20;;
38603;SDS011;24924;50.054;8.790;2023-07-13T05:22:19;2.70;;;1.10;;
38603;SDS011;24924;50.054;8.790;2023-07-13T05:24:44;4.38;;;1.33;;
38603;SDS011;24924;50.054;8.790;2023-07-13T05:27:10;3.70;;;1.40;;
38603;SDS011;24924;50.054;8.790;2023-07-13T05:29:36;3.28;;;1.38;;
38603;SDS011;24924;50.054;8.790;2023-07-13T05:32:01;3.63;;;1.10;;
38603;SDS011;24924;50.054;8.790;2023-07-13T05:34:28;3.10;;;1.40;;
38603;SDS011;24924;50.054;8.790;2023-07-13T05:36:55;3.10;;;1.38;;
38603;SDS011;24924;50.054;8.790;2023-07-13T05:39:21;5.15;;;1.40;;
38603;SDS011;24924;50.054;8.790;2023-07-13T05:41:46;3.30;;;1.20;;
38603;SDS011;24924;50.054;8.790;2023-07-13T05:44:13;3.50;;;1.50;;
38603;SDS011;24924;50.054;8.790;2023-07-13T05:46:39;3.63;;;1.40;;
38603;SDS011;24924;50.054;8.790;2023-07-13T05:49:04;3.10;;;1.30;;
38603;SDS011;24924;50.054;8.790;2023-07-13T05:51:30;4.13;;;1.60;;
38603;SDS011;24924;50.054;8.790;2023-07-13T05:53:56;4.60;;;1.40;;
38603;SDS011;24924;50.054;8.790;2023-07-13T05:56:22;4.05;;;1.48;;
38603;SDS011;24924;50.054;8.790;2023-07-13T05:58:48;3.90;;;1.25;;
38603;SDS011;24924;50.054;8.790;2023-07-13T06:01:15;2.88;;;1.23;;
38603;SDS011;24924;50.054;8.790;2023-07-13T06:03:41;6.18;;;1.55;;
38603;SDS011;24924;50.054;8.790;2023-07-13T06:06:07;3.60;;;1.17;;
38603;SDS011;24924;50.054;8.790;2023-07-13T06:08:35;3.58;;;1.27;;
38603;SDS011;24924;50.054;8.790;2023-07-13T06:11:05;4.38;;;1.60;;
38603;SDS011;24924;50.054;8.790;2023-07-13T06:13:34;5.70;;;1.17;;
38603;SDS011;24924;50.054;8.790;2023-07-13T06:16:01;2.90;;;1.10;;
38603;SDS011;24924;50.054;8.790;2023-07-13T06:18:29;3.40;;;1.48;;
38603;SDS011;24924;50.054;8.790;2023-07-13T06:20:56;3.00;;;1.20;;
38603;SDS011;24924;50.054;8.790;2023-07-13T06:23:23;3.83;;;1.20;;
38603;SDS011;24924;50.054;8.790;2023-07-13T06:25:49;3.10;;;1.27;;
38603;SDS011;24924;50.054;8.790;2023-07-13T06:28:15;3.30;;;1.23;;
38603;SDS011;24924;50.054;8.790;2023-07-13T06:30:40;4.07;;;1.10;;
38603;SDS011;24924;50.054;8.790;2023-07-13T06:33:06;3.55;;;1.38;;
38603;SDS011;24924;50.054;8.790;2023-07-13T06:35:32;3.37;;;1.20;;
38603;SDS011;24924;50.054;8.790;2023-07-13T06:37:58;4.55;;;1.20;;
38603;SDS011;24924;50.054;8.790;2023-07-13T06:40:24;3.10;;;1.20;;
38603;SDS011;24924;50.054;8.790;2023-07-13T06:42:50;2.80;;;1.10;;
38603;SDS011;24924;50.054;8.790;2023-07-13T06:45:16;3.10;;;1.02;;
38603;SDS011;24924;50.054;8.790;2023-07-13T06:47:42;2.90;;;1.00;;
38603;SDS011;24924;50.054;8.790;2023-07-13T06:50:08;5.60;;;1.50;;
38603;SDS011;24924;50.054;8.790;2023-07-13T06:52:34;3.05;;;1.08;;
38603;SDS011;24924;50.054;8.790;2023-07-13T06:54:59;4.03;;;1.23;;
38603;SDS011;24924;50.054;8.790;2023-07-13T06:57:25;3.08;;;1.20;;
38603;SDS011;24924;50.054;8.790;2023-07-13T06:59:51;3.28;;;1.00;;
38603;SDS011;24924;50.054;8.790;2023-07-13T07:02:17;3.23;;;1.10;;
38603;SDS011;24924;50.054;8.790;2023-07-13T07:04:43;3.67;;;1.10;;
38603;SDS011;24924;50.054;8.790;2023-07-13T07:07:08;5.40;;;1.10;;
38603;SDS011;24924;50.054;8.790;2023-07-13T07:09:34;5.10;;;1.20;;
38603;SDS011;24924;50.054;8.790;2023-07-13T07:11:59;4.07;;;0.93;;
38603;SDS011;24924;50.054;8.790;2023-07-13T07:14:25;2.33;;;0.70;;
38603;SDS011;24924;50.054;8.790;2023-07-13T07:16:51;2.72;;;0.88;;
38603;SDS011;24924;50.054;8.790;2023-07-13T07:19:16;2.53;;;0.80;;
38603;SDS011;24924;50.054;8.790;2023-07-13T07:21:42;3.30;;;1.10;;
38603;SDS011;24924;50.054;8.790;2023-07-13T07:24:08;2.75;;;1.00;;
38603;SDS011;24924;50.054;8.790;2023-07-13T07:26:34;3.85;;;1.10;;
38603;SDS011;24924;50.054;8.790;2023-07-13T07:29:00;3.00;;;0.90;;
38603;SDS011;24924;50.054;8.790;2023-07-13T07:31:26;4.18;;;1.05;;
38603;SDS011;24924;50.054;8.790;2023-07-13T07:33:52;2.85;;;0.80;;
38603;SDS011;24924;50.054;8.790;2023-07-13T07:36:18;2.63;;;0.93;;
38603;SDS011;24924;50.054;8.790;2023-07-13T07:38:44;2.60;;;0.85;;
38603;SDS011;24924;50.054;8.790;2023-07-13T07:41:09;2.78;;;1.00;;
38603;SDS011;24924;50.054;8.790;2023-07-13T07:43:35;2.97;;;1.00;;
38603;SDS011;24924;50.054;8.790;2023-07-13T07:46:02;3.17;;;1.20;;
38603;SDS011;24924;50.054;8.790;2023-07-13T07:48:28;3.55;;;0.80;;
38603;SDS011;24924;50.054;8.790;2023-07-13T07:50:54;2.50;;;0.70;;
38603;SDS011;24924;50.054;8.790;2023-07-13T07:53:19;2.83;;;1.10;;
38603;SDS011;24924;50.054;8.790;2023-07-13T07:55:45;3.60;;;1.08;;
38603;SDS011;24924;50.054;8.790;2023-07-13T07:58:12;3.38;;;1.05;;
38603;SDS011;24924;50.054;8.790;2023-07-13T08:00:39;2.60;;;0.90;;
38603;SDS011;24924;50.054;8.790;2023-07-13T08:03:05;2.92;;;1.10;;
38603;SDS011;24924;50.054;8.790;2023-07-13T08:05:31;3.13;;;1.05;;
38603;SDS011;24924;50.054;8.790;2023-07-13T08:07:59;2.63;;;0.85;;
38603;SDS011;24924;50.054;8.790;2023-07-13T08:10:25;2.67;;;0.90;;
38603;SDS011;24924;50.054;8.790;2023-07-13T08:12:51;3.10;;;1.10;;
38603;SDS011;24924;50.054;8.790;2023-07-13T08:15:17;2.93;;;0.90;;
38603;SDS011;24924;50.054;8.790;2023-07-13T08:17:46;2.90;;;1.00;;
38603;SDS011;24924;50.054;8.790;2023-07-13T08:20:13;3.42;;;1.10;;
38603;SDS011;24924;50.054;8.790;2023-07-13T08:22:39;5.18;;;1.35;;
38603;SDS011;24924;50.054;8.790;2023-07-13T08:25:05;5.53;;;1.00;;
38603;SDS011;24924;50.054;8.790;2023-07-13T08:27:31;2.55;;;0.80;;
38603;SDS011;24924;50.054;8.790;2023-07-13T08:29:56;2.60;;;0.90;;
38603;SDS011;24924;50.054;8.790;2023-07-13T08:32:23;4.70;;;1.10;;
38603;SDS011;24924;50.054;8.790;2023-07-13T08:34:49;2.80;;;1.00;;
38603;SDS011;24924;50.054;8.790;2023-07-13T08:37:15;3.03;;;1.02;;
38603;SDS011;24924;50.054;8.790;2023-07-13T08:39:42;2.90;;;0.90;;
38603;SDS011;24924;50.054;8.790;2023-07-13T08:45:04;2.65;;;0.90;;
38603;SDS011;24924;50.054;8.790;2023-07-13T08:47:39;2.83;;;0.83;;
38603;SDS011;24924;50.054;8.790;2023-07-13T08:50:11;4.13;;;0.98;;
38603;SDS011;24924;50.054;8.790;2023-07-13T08:52:39;4.72;;;0.90;;
38603;SDS011;24924;50.054;8.790;2023-07-13T08:55:17;3.40;;;1.17;;
38603;SDS011;24924;50.054;8.790;2023-07-13T08:57:48;3.08;;;1.00;;
38603;SDS011;24924;50.054;8.790;2023-07-13T09:00:19;2.53;;;0.80;;
38603;SDS011;24924;50.054;8.790;2023-07-13T09:02:46;2.70;;;0.80;;
38603;SDS011;24924;50.054;8.790;2023-07-13T09:05:29;2.80;;;0.88;;
38603;SDS011;24924;50.054;8.790;2023-07-13T09:10:53;2.70;;;0.93;;
38603;SDS011;24924;50.054;8.790;2023-07-13T09:16:23;2.95;;;0.98;;
38603;SDS011;24924;50.054;8.790;2023-07-13T09:18:50;4.10;;;1.00;;
38603;SDS011;24924;50.054;8.790;2023-07-13T09:21:25;3.25;;;1.17;;
38603;SDS011;24924;50.054;8.790;2023-07-13T09:23:59;3.00;;;0.90;;
38603;SDS011;24924;50.054;8.790;2023-07-13T09:26:28;3.13;;;0.90;;
38603;SDS011;24924;50.054;8.790;2023-07-13T09:28:58;3.00;;;1.02;;
38603;SDS011;24924;50.054;8.790;2023-07-13T09:31:33;2.60;;;0.80;;
38603;SDS011;24924;50.054;8.790;2023-07-13T09:34:06;2.90;;;0.90;;
38603;SDS011;24924;50.054;8.790;2023-07-13T09:36:35;3.27;;;1.00;;
38603;SDS011;24924;50.054;8.790;2023-07-13T09:39:03;2.80;;;0.80;;
38603;SDS011;24924;50.054;8.790;2023-07-13T09:46:43;2.63;;;0.70;;
38603;SDS011;24924;50.054;8.790;2023-07-13T09:49:17;3.90;;;0.87;;
38603;SDS011;24924;50.054;8.790;2023-07-13T09:51:43;2.55;;;0.82;;
38603;SDS011;24924;50.054;8.790;2023-07-13T09:54:32;2.50;;;0.80;;
38603;SDS011;24924;50.054;8.790;2023-07-13T09:56:58;3.00;;;1.00;;
38603;SDS011;24924;50.054;8.790;2023-07-13T09:59:29;2.42;;;0.73;;
38603;SDS011;24924;50.054;8.790;2023-07-13T10:01:59;3.10;;;0.90;;
38603;SDS011;24924;50.054;8.790;2023-07-13T10:04:32;2.83;;;0.90;;
38603;SDS011;24924;50.054;8.790;2023-07-13T10:07:09;2.72;;;0.80;;
38603;SDS011;24924;50.054;8.790;2023-07-13T10:09:40;3.20;;;0.90;;
38603;SDS011;24924;50.054;8.790;2023-07-13T10:12:14;2.60;;;0.90;;
38603;SDS011;24924;50.054;8.790;2023-07-13T10:14:39;2.70;;;0.82;;
38603;SDS011;24924;50.054;8.790;2023-07-13T10:17:08;3.90;;;0.90;;
38603;SDS011;24924;50.054;8.790;2023-07-13T10:19:37;2.50;;;0.73;;
38603;SDS011;24924;50.054;8.790;2023-07-13T10:24:48;3.42;;;0.90;;
38603;SDS011;24924;50.054;8.790;2023-07-13T10:27:17;2.78;;;0.90;;
38603;SDS011;24924;50.054;8.790;2023-07-13T10:29:48;2.60;;;0.80;;
38603;SDS011;24924;50.054;8.790;2023-07-13T10:32:15;3.55;;;0.85;;
38603;SDS011;24924;50.054;8.790;2023-07-13T10:34:50;2.55;;;0.80;;
38603;SDS011;24924;50.054;8.790;2023-07-13T10:37:22;2.72;;;0.80;;
38603;SDS011;24924;50.054;8.790;2023-07-13T10:39:50;3.17;;;1.13;;
38603;SDS011;24924;50.054;8.790;2023-07-13T10:42:27;2.70;;;0.90;;
38603;SDS011;24924;50.054;8.790;2023-07-13T10:44:57;2.40;;;0.80;;
38603;SDS011;24924;50.054;8.790;2023-07-13T10:47:22;2.60;;;0.80;;
38603;SDS011;24924;50.054;8.790;2023-07-13T10:49:50;2.97;;;0.90;;
38603;SDS011;24924;50.054;8.790;2023-07-13T10:58:23;2.95;;;0.93;;
38603;SDS011;24924;50.054;8.790;2023-07-13T11:01:00;2.78;;;0.90;;
38603;SDS011;24924;50.054;8.790;2023-07-13T11:03:46;3.30;;;0.90;;
38603;SDS011;24924;50.054;8.790;2023-07-13T11:09:18;3.13;;;1.02;;
38603;SDS011;24924;50.054;8.790;2023-07-13T11:12:06;2.53;;;0.73;;
38603;SDS011;24924;50.054;8.790;2023-07-13T11:20:08;2.70;;;0.90;;
38603;SDS011;24924;50.054;8.790;2023-07-13T11:22:47;2.67;;;0.77;;
38603;SDS011;24924;50.054;8.790;2023-07-13T11:25:28;2.88;;;0.90;;
38603;SDS011;24924;50.054;8.790;2023-07-13T11:33:21;2.90;;;0.80;;
38603;SDS011;24924;50.054;8.790;2023-07-13T11:38:36;2.90;;;0.88;;
38603;SDS011;24924;50.054;8.790;2023-07-13T11:41:13;2.90;;;0.90;;
38603;SDS011;24924;50.054;8.790;2023-07-13T11:44:07;3.17;;;0.90;;
38603;SDS011;24924;50.054;8.790;2023-07-13T11:46:37;3.33;;;0.90;;
38603;SDS011;24924;50.054;8.790;2023-07-13T11:49:06;2.50;;;0.80;;
38603;SDS011;24924;50.054;8.790;2023-07-13T11:51:33;2.45;;;0.70;;
38603;SDS011;24924;50.054;8.790;2023-07-13T11:54:03;3.73;;;0.90;;
38603;SDS011;24924;50.054;8.790;2023-07-13T11:56:30;2.80;;;0.90;;
38603;SDS011;24924;50.054;8.790;2023-07-13T11:59:02;2.60;;;0.80;;
38603;SDS011;24924;50.054;8.790;2023-07-13T12:01:31;2.78;;;0.80;;
38603;SDS011;24924;50.054;8.790;2023-07-13T12:04:02;3.03;;;1.02;;
38603;SDS011;24924;50.054;8.790;2023-07-13T12:06:29;3.37;;;0.90;;
38603;SDS011;24924;50.054;8.790;2023-07-13T12:09:00;3.40;;;0.90;;
38603;SDS011;24924;50.054;8.790;2023-07-13T12:11:28;2.97;;;1.00;;
38603;SDS011;24924;50.054;8.790;2023-07-13T12:13:55;3.47;;;1.35;;
38603;SDS011;24924;50.054;8.790;2023-07-13T12:16:25;2.80;;;0.82;;
38603;SDS011;24924;50.054;8.790;2023-07-13T12:18:55;2.90;;;0.80;;
38603;SDS011;24924;50.054;8.790;2023-07-13T12:21:24;2.70;;;0.88;;
38603;SDS011;24924;50.054;8.790;2023-07-13T12:23:59;2.42;;;0.77;;
38603;SDS011;24924;50.054;8.790;2023-07-13T12:26:28;2.80;;;0.88;;
38603;SDS011;24924;50.054;8.790;2023-07-13T12:28:56;2.60;;;0.80;;
38603;SDS011;24924;50.054;8.790;2023-07-13T12:31:29;4.20;;;0.90;;
38603;SDS011;24924;50.054;8.790;2023-07-13T12:36:51;2.90;;;0.90;;
38603;SDS011;24924;50.054;8.790;2023-07-13T12:45:05;2.60;;;0.90;;
38603;SDS011;24924;50.054;8.790;2023-07-13T12:47:43;2.78;;;0.93;;
38603;SDS011;24924;50.054;8.790;2023-07-13T12:50:19;2.97;;;0.90;;
38603;SDS011;24924;50.054;8.790;2023-07-13T12:52:50;2.65;;;0.82;;
38603;SDS011;24924;50.054;8.790;2023-07-13T12:55:18;3.47;;;1.00;;
38603;SDS011;24924;50.054;8.790;2023-07-13T12:57:53;3.20;;;0.80;;
38603;SDS011;24924;50.054;8.790;2023-07-13T13:02:58;3.08;;;0.93;;
38603;SDS011;24924;50.054;8.790;2023-07-13T13:05:30;3.10;;;1.05;;
38603;SDS011;24924;50.054;8.790;2023-07-13T13:07:59;3.10;;;0.80;;
38603;SDS011;24924;50.054;8.790;2023-07-13T13:10:25;3.00;;;0.90;;
38603;SDS011;24924;50.054;8.790;2023-07-13T13:12:51;2.97;;;0.90;;
38603;SDS011;24924;50.054;8.790;2023-07-13T13:15:17;3.33;;;0.80;;
38603;SDS011;24924;50.054;8.790;2023-07-13T13:17:44;3.28;;;1.05;;
38603;SDS011;24924;50.054;8.790;2023-07-13T13:20:19;3.60;;;0.87;;
38603;SDS011;24924;50.054;8.790;2023-07-13T13:22:47;2.70;;;0.80;;
38603;SDS011;24924;50.054;8.790;2023-07-13T13:25:13;2.92;;;1.10;;
38603;SDS011;24924;50.054;8.790;2023-07-13T13:27:40;2.72;;;1.00;;
38603;SDS011;24924;50.054;8.790;2023-07-13T13:30:10;2.92;;;1.10;;
38603;SDS011;24924;50.054;8.790;2023-07-13T13:32:45;2.70;;;0.80;;
38603;SDS011;24924;50.054;8.790;2023-07-13T13:35:16;2.50;;;0.80;;
38603;SDS011;24924;50.054;8.790;2023-07-13T13:37:45;3.58;;;0.85;;
38603;SDS011;24924;50.054;8.790;2023-07-13T13:40:19;2.50;;;0.90;;
38603;SDS011;24924;50.054;8.790;2023-07-13T13:42:48;3.25;;;1.00;;
38603;SDS011;24924;50.054;8.790;2023-07-13T13:45:14;3.43;;;1.00;;
38603;SDS011;24924;50.054;8.790;2023-07-13T13:47:41;3.03;;;0.80;;
38603;SDS011;24924;50.054;8.790;2023-07-13T13:50:17;2.55;;;0.93;;
38603;SDS011;24924;50.054;8.790;2023-07-13T13:52:47;3.03;;;0.93;;
38603;SDS011;24924;50.054;8.790;2023-07-13T13:55:20;2.80;;;1.00;;
38603;SDS011;24924;50.054;8.790;2023-07-13T13:57:46;2.88;;;1.00;;
38603;SDS011;24924;50.054;8.790;2023-07-13T14:00:13;3.75;;;1.10;;
38603;SDS011;24924;50.054;8.790;2023-07-13T14:02:46;2.70;;;0.93;;
38603;SDS011;24924;50.054;8.790;2023-07-13T14:05:16;2.60;;;0.90;;
38603;SDS011;24924;50.054;8.790;2023-07-13T14:07:46;3.67;;;1.00;;
38603;SDS011;24924;50.054;8.790;2023-07-13T14:10:14;2.75;;;0.90;;
38603;SDS011;24924;50.054;8.790;2023-07-13T14:12:45;3.00;;;0.85;;
38603;SDS011;24924;50.054;8.790;2023-07-13T14:17:56;3.00;;;1.08;;
38603;SDS011;24924;50.054;8.790;2023-07-13T14:20:23;3.10;;;1.20;;
38603;SDS011;24924;50.054;8.790;2023-07-13T14:22:51;3.10;;;1.00;;
38603;SDS011;24924;50.054;8.790;2023-07-13T14:25:18;2.70;;;0.90;;
38603;SDS011;24924;50.054;8.790;2023-07-13T14:27:46;2.60;;;0.80;;
38603;SDS011;24924;50.054;8.790;2023-07-13T14:30:18;2.40;;;0.70;;
38603;SDS011;24924;50.054;8.790;2023-07-13T14:32:46;2.88;;;0.82;;
38603;SDS011;24924;50.054;8.790;2023-07-13T14:35:14;2.83;;;0.88;;
38603;SDS011;24924;50.054;8.790;2023-07-13T14:37:41;3.78;;;1.10;;
38603;SDS011;24924;50.054;8.790;2023-07-13T14:40:18;2.80;;;0.80;;
38603;SDS011;24924;50.054;8.790;2023-07-13T14:42:49;3.13;;;0.90;;
38603;SDS011;24924;50.054;8.790;2023-07-13T14:45:17;3.00;;;1.00;;
38603;SDS011;24924;50.054;8.790;2023-07-13T14:47:44;2.70;;;0.90;;
38603;SDS011;24924;50.054;8.790;2023-07-13T14:50:16;3.00;;;1.00;;
38603;SDS011;24924;50.054;8.790;2023-07-13T14:52:45;2.42;;;0.75;;
38603;SDS011;24924;50.054;8.790;2023-07-13T14:55:13;2.67;;;0.77;;
38603;SDS011;24924;50.054;8.790;2023-07-13T14:57:41;3.28;;;1.05;;
38603;SDS011;24924;50.054;8.790;2023-07-13T15:00:16;2.80;;;0.90;;
38603;SDS011;24924;50.054;8.790;2023-07-13T15:02:45;3.00;;;0.93;;
38603;SDS011;24924;50.054;8.790;2023-07-13T15:05:20;3.22;;;1.10;;
38603;SDS011;24924;50.054;8.790;2023-07-13T15:07:50;3.17;;;1.00;;
38603;SDS011;24924;50.054;8.790;2023-07-13T15:12:44;2.63;;;0.80;;
38603;SDS011;24924;50.054;8.790;2023-07-13T15:15:11;3.63;;;0.98;;
38603;SDS011;24924;50.054;8.790;2023-07-13T15:17:38;5.47;;;1.00;;
38603;SDS011;24924;50.054;8.790;2023-07-13T15:20:06;3.13;;;0.88;;
38603;SDS011;24924;50.054;8.790;2023-07-13T15:22:44;3.75;;;1.00;;
38603;SDS011;24924;50.054;8.790;2023-07-13T15:25:18;2.60;;;0.80;;
38603;SDS011;24924;50.054;8.790;2023-07-13T15:27:46;5.88;;;1.30;;
38603;SDS011;24924;50.054;8.790;2023-07-13T15:30:13;2.88;;;1.00;;
38603;SDS011;24924;50.054;8.790;2023-07-13T15:32:41;3.08;;;0.90;;
38603;SDS011;24924;50.054;8.790;2023-07-13T15:35:14;2.63;;;0.90;;
38603;SDS011;24924;50.054;8.790;2023-07-13T15:37:45;2.80;;;0.90;;
38603;SDS011;24924;50.054;8.790;2023-07-13T15:40:12;3.60;;;1.17;;
38603;SDS011;24924;50.054;8.790;2023-07-13T15:42:39;2.95;;;1.02;;
38603;SDS011;24924;50.054;8.790;2023-07-13T15:45:19;3.33;;;1.00;;
38603;SDS011;24924;50.054;8.790;2023-07-13T15:47:47;2.80;;;0.80;;
38603;SDS011;24924;50.054;8.790;2023-07-13T15:50:18;3.60;;;0.90;;
38603;SDS011;24924;50.054;8.790;2023-07-13T15:52:49;3.47;;;0.70;;